createdAt,value
2024-05-09T00:00:51.749Z,0.00
2024-05-09T00:01:51.775Z,0.00
2024-05-09T00:02:51.698Z,0.00
2024-05-09T00:03:51.755Z,0.00
2024-05-09T00:04:51.701Z,0.00
2024-05-09T00:05:51.952Z,0.00
2024-05-09T00:06:51.659Z,0.00
2024-05-09T00:07:51.752Z,0.00
2024-05-09T00:08:51.625Z,0.00
2024-05-09T00:09:51.595Z,0.00
2024-05-09T00:10:51.703Z,0.00
2024-05-09T00:11:51.821Z,0.00
2024-05-09T00:12:51.634Z,0.00
2024-05-09T00:13:51.602Z,0.00
2024-05-09T00:14:51.578Z,0.00
2024-05-09T00:15:51.530Z,0.00
2024-05-09T00:16:51.524Z,0.00
2024-05-09T00:17:51.904Z,0.00
2024-05-09T00:18:51.564Z,0.00
2024-05-09T00:19:51.519Z,0.00
2024-05-09T00:20:51.584Z,0.00
2024-05-09T00:21:51.556Z,0.00
2024-05-09T00:22:51.519Z,0.00
2024-05-09T00:23:51.441Z,0.00
2024-05-09T00:24:51.471Z,0.00
2024-05-09T00:25:51.476Z,0.00
2024-05-09T00:26:51.418Z,0.00
2024-05-09T00:27:51.401Z,0.00
2024-05-09T00:28:51.429Z,0.00
2024-05-09T00:29:51.405Z,0.00
2024-05-09T00:30:51.390Z,0.00
2024-05-09T00:31:51.485Z,0.00
2024-05-09T00:32:51.754Z,0.00
2024-05-09T00:33:51.537Z,0.00
2024-05-09T00:34:51.346Z,0.00
2024-05-09T00:35:51.308Z,0.00
2024-05-09T00:36:51.328Z,0.00
2024-05-09T00:37:51.343Z,0.00
2024-05-09T00:38:51.272Z,0.00
2024-05-09T00:39:51.275Z,0.00
2024-05-09T00:40:51.291Z,0.00
2024-05-09T00:41:51.268Z,0.00
2024-05-09T00:42:51.235Z,0.00
2024-05-09T00:43:51.339Z,0.00
2024-05-09T00:44:51.232Z,0.00
2024-05-09T00:45:51.281Z,0.00
2024-05-09T00:46:51.252Z,0.00
2024-05-09T00:47:51.741Z,0.00
2024-05-09T00:48:51.306Z,0.00
2024-05-09T00:49:51.237Z,0.00
2024-05-09T00:50:53.976Z,0.00
2024-05-09T00:51:51.207Z,0.00
2024-05-09T00:52:51.213Z,0.00
2024-05-09T00:53:51.103Z,0.00
2024-05-09T00:54:51.092Z,0.00
2024-05-09T00:55:51.112Z,0.00
2024-05-09T00:56:51.086Z,0.00
2024-05-09T00:57:51.092Z,0.00
2024-05-09T00:58:51.126Z,0.00
2024-05-09T00:59:51.066Z,0.00
2024-05-09T01:00:51.225Z,0.00
2024-05-09T01:01:51.147Z,0.00
2024-05-09T01:02:51.206Z,0.00
2024-05-09T01:03:51.441Z,0.00
2024-05-09T01:04:51.085Z,0.00
2024-05-09T01:05:51.316Z,0.00
2024-05-09T01:06:51.016Z,0.00
2024-05-09T01:07:51.024Z,0.00
2024-05-09T01:08:50.947Z,0.00
2024-05-09T01:09:50.927Z,0.00
2024-05-09T01:10:51.067Z,0.00
2024-05-09T01:11:51.139Z,0.00
2024-05-09T01:12:50.930Z,0.00
2024-05-09T01:13:51.027Z,0.00
2024-05-09T01:14:50.919Z,0.00
2024-05-09T01:15:50.898Z,0.00
2024-05-09T01:16:50.990Z,0.00
2024-05-09T01:17:51.112Z,0.00
2024-05-09T01:18:50.987Z,0.00
2024-05-09T01:19:50.933Z,0.00
2024-05-09T01:20:50.924Z,0.00
2024-05-09T01:21:50.804Z,0.00
2024-05-09T01:22:50.877Z,0.00
2024-05-09T01:23:50.806Z,0.00
2024-05-09T01:24:50.773Z,0.00
2024-05-09T01:25:50.797Z,0.00
2024-05-09T01:26:50.743Z,0.00
2024-05-09T01:27:50.763Z,0.00
2024-05-09T01:28:50.843Z,0.00
2024-05-09T01:29:50.709Z,0.00
2024-05-09T01:30:50.701Z,0.00
2024-05-09T01:31:50.776Z,0.00
2024-05-09T01:32:50.985Z,0.00
2024-05-09T01:33:50.757Z,0.00
2024-05-09T01:34:50.702Z,0.00
2024-05-09T01:35:50.649Z,0.00
2024-05-09T01:36:50.632Z,0.00
2024-05-09T01:37:50.676Z,0.00
2024-05-09T01:38:50.607Z,0.00
2024-05-09T01:39:50.644Z,0.00
2024-05-09T01:40:50.660Z,0.00
2024-05-09T01:41:50.592Z,0.00
2024-05-09T01:42:50.593Z,0.00
2024-05-09T01:43:50.548Z,0.00
2024-05-09T01:44:50.546Z,0.00
2024-05-09T01:45:50.522Z,0.00
2024-05-09T01:46:50.556Z,0.00
2024-05-09T01:47:50.864Z,0.00
2024-05-09T01:48:50.616Z,0.00
2024-05-09T01:49:50.528Z,0.00
2024-05-09T01:50:50.541Z,0.00
2024-05-09T01:51:50.471Z,0.00
2024-05-09T01:52:50.459Z,0.00
2024-05-09T01:53:50.576Z,0.00
2024-05-09T01:54:50.450Z,0.00
2024-05-09T01:55:50.502Z,0.00
2024-05-09T01:56:50.403Z,0.00
2024-05-09T01:57:50.427Z,0.00
2024-05-09T01:58:50.402Z,0.00
2024-05-09T01:59:50.490Z,0.00
2024-05-09T02:00:50.443Z,0.00
2024-05-09T02:01:56.736Z,0.00
2024-05-09T02:02:51.649Z,0.00
2024-05-09T02:03:50.791Z,0.00
2024-05-09T02:04:50.466Z,0.00
2024-05-09T02:05:50.594Z,0.00
2024-05-09T02:06:50.334Z,0.00
2024-05-09T02:07:50.316Z,0.00
2024-05-09T02:08:50.269Z,0.00
2024-05-09T02:09:50.260Z,0.00
2024-05-09T02:10:50.993Z,0.00
2024-05-09T02:11:50.319Z,0.00
2024-05-09T02:12:50.233Z,0.00
2024-05-09T02:13:50.268Z,0.00
2024-05-09T02:14:50.204Z,0.00
2024-05-09T02:15:50.219Z,0.00
2024-05-09T02:16:50.236Z,0.00
2024-05-09T02:17:50.620Z,0.00
2024-05-09T02:18:50.305Z,0.00
2024-05-09T02:19:50.226Z,0.00
2024-05-09T02:20:50.222Z,0.00
2024-05-09T02:21:50.140Z,0.00
2024-05-09T02:22:50.134Z,0.00
2024-05-09T02:23:50.137Z,0.00
2024-05-09T02:24:50.110Z,0.00
2024-05-09T02:25:50.131Z,0.00
2024-05-09T02:26:50.115Z,0.00
2024-05-09T02:27:50.082Z,0.00
2024-05-09T02:28:50.097Z,0.00
2024-05-09T02:29:50.044Z,0.00
2024-05-09T02:30:50.041Z,0.00
2024-05-09T02:31:50.144Z,0.00
2024-05-09T02:32:50.213Z,0.00
2024-05-09T02:33:50.483Z,0.00
2024-05-09T02:34:50.053Z,0.00
2024-05-09T02:35:50.019Z,0.00
2024-05-09T02:36:50.004Z,0.00
2024-05-09T02:37:50.008Z,0.00
2024-05-09T02:38:49.973Z,0.00
2024-05-09T02:39:49.932Z,0.00
2024-05-09T02:40:49.938Z,0.00
2024-05-09T02:41:49.926Z,0.00
2024-05-09T02:42:49.882Z,0.00
2024-05-09T02:43:49.881Z,0.00
2024-05-09T02:44:49.892Z,0.00
2024-05-09T02:45:49.859Z,0.00
2024-05-09T02:46:49.922Z,0.00
2024-05-09T02:47:50.022Z,0.00
2024-05-09T02:48:49.943Z,0.00
2024-05-09T02:49:49.860Z,0.00
2024-05-09T02:50:49.878Z,0.00
2024-05-09T02:51:49.821Z,0.00
2024-05-09T02:52:49.849Z,0.00
2024-05-09T02:53:49.779Z,4.00
2024-05-09T02:54:49.765Z,4.00
2024-05-09T02:55:49.762Z,0.00
2024-05-09T02:56:49.735Z,0.00
2024-05-09T02:57:49.885Z,4.00
2024-05-09T02:58:49.743Z,0.00
2024-05-09T02:59:49.696Z,4.00
2024-05-09T03:00:49.856Z,0.00
2024-05-09T03:01:49.802Z,4.00
2024-05-09T03:02:49.853Z,4.00
2024-05-09T03:03:49.950Z,4.00
2024-05-09T03:04:49.807Z,4.00
2024-05-09T03:05:49.677Z,4.00
2024-05-09T03:06:49.619Z,8.00
2024-05-09T03:07:49.658Z,8.00
2024-05-09T03:08:49.632Z,8.00
2024-05-09T03:09:49.592Z,12.00
2024-05-09T03:10:49.616Z,16.00
2024-05-09T03:11:49.691Z,16.00
2024-05-09T03:12:49.546Z,20.00
2024-05-09T03:13:49.603Z,20.00
2024-05-09T03:14:49.576Z,24.00
2024-05-09T03:15:49.551Z,28.00
2024-05-09T03:16:49.520Z,32.00
2024-05-09T03:17:49.704Z,36.00
2024-05-09T03:18:49.653Z,40.00
2024-05-09T03:19:49.506Z,48.00
2024-05-09T03:20:49.742Z,52.00
2024-05-09T03:21:49.451Z,56.00
2024-05-09T03:22:49.492Z,60.00
2024-05-09T03:23:49.493Z,64.00
2024-05-09T03:24:49.467Z,72.00
2024-05-09T03:25:49.473Z,80.00
2024-05-09T03:26:49.513Z,88.00
2024-05-09T03:27:49.383Z,96.00
2024-05-09T03:28:49.416Z,104.00
2024-05-09T03:29:49.504Z,116.00
2024-05-09T03:30:49.383Z,124.00
2024-05-09T03:31:49.473Z,132.00
2024-05-09T03:32:49.531Z,144.00
2024-05-09T03:33:49.453Z,152.00
2024-05-09T03:34:49.329Z,164.00
2024-05-09T03:35:56.329Z,180.00
2024-05-09T03:36:49.311Z,192.00
2024-05-09T03:37:49.367Z,204.00
2024-05-09T03:38:49.264Z,216.00
2024-05-09T03:39:49.269Z,232.00
2024-05-09T03:40:50.229Z,244.00
2024-05-09T03:41:49.245Z,260.00
2024-05-09T03:42:49.266Z,272.00
2024-05-09T03:43:49.246Z,292.00
2024-05-09T03:44:49.192Z,304.00
2024-05-09T03:45:49.203Z,324.00
2024-05-09T03:46:49.221Z,336.00
2024-05-09T03:47:49.607Z,356.00
2024-05-09T03:48:49.199Z,372.00
2024-05-09T03:49:49.222Z,392.00
2024-05-09T03:50:49.181Z,404.00
2024-05-09T03:51:49.115Z,424.00
2024-05-09T03:52:49.146Z,440.00
2024-05-09T03:53:49.127Z,456.00
2024-05-09T03:54:49.082Z,476.00
2024-05-09T03:55:49.149Z,496.00
2024-05-09T03:56:49.075Z,512.00
2024-05-09T03:57:49.051Z,532.00
2024-05-09T03:58:49.094Z,544.00
2024-05-09T03:59:49.051Z,564.00
2024-05-09T04:00:49.080Z,580.00
2024-05-09T04:01:49.143Z,600.00
2024-05-09T04:02:49.063Z,616.00
2024-05-09T04:03:49.324Z,632.00
2024-05-09T04:04:49.124Z,652.00
2024-05-09T04:05:49.016Z,668.00
2024-05-09T04:06:48.987Z,684.00
2024-05-09T04:07:48.985Z,700.00
2024-05-09T04:08:48.977Z,720.00
2024-05-09T04:09:48.920Z,732.00
2024-05-09T04:10:48.955Z,752.00
2024-05-09T04:11:49.101Z,768.00
2024-05-09T04:12:48.929Z,788.00
2024-05-09T04:13:48.944Z,804.00
2024-05-09T04:14:48.874Z,820.00
2024-05-09T04:15:48.844Z,836.00
2024-05-09T04:16:48.968Z,848.00
2024-05-09T04:17:49.266Z,868.00
2024-05-09T04:18:49.270Z,884.00
2024-05-09T04:19:48.962Z,896.00
2024-05-09T04:20:48.854Z,916.00
2024-05-09T04:21:48.808Z,928.00
2024-05-09T04:22:48.835Z,944.00
2024-05-09T04:23:48.829Z,964.00
2024-05-09T04:24:48.742Z,976.00
2024-05-09T04:25:48.780Z,988.00
2024-05-09T04:26:48.785Z,1000.00
2024-05-09T04:27:48.714Z,1016.00
2024-05-09T04:28:48.772Z,1032.00
2024-05-09T04:29:48.690Z,1044.00
2024-05-09T04:30:48.692Z,1060.00
2024-05-09T04:31:48.802Z,1076.00
2024-05-09T04:32:48.822Z,1088.00
2024-05-09T04:33:48.751Z,1104.00
2024-05-09T04:34:48.680Z,1116.00
2024-05-09T04:35:48.628Z,1128.00
2024-05-09T04:36:48.675Z,1140.00
2024-05-09T04:37:48.629Z,1156.00
2024-05-09T04:38:48.593Z,1172.00
2024-05-09T04:39:48.601Z,1188.00
2024-05-09T04:40:48.628Z,1200.00
2024-05-09T04:41:48.562Z,1216.00
2024-05-09T04:42:48.587Z,1228.00
2024-05-09T04:43:48.599Z,1240.00
2024-05-09T04:44:48.540Z,1260.00
2024-05-09T04:45:48.540Z,1276.00
2024-05-09T04:46:48.531Z,1288.00
2024-05-09T04:47:48.765Z,1304.00
2024-05-09T04:48:48.652Z,1316.00
2024-05-09T04:49:48.525Z,1332.00
2024-05-09T04:50:48.484Z,1348.00
2024-05-09T04:51:48.556Z,1364.00
2024-05-09T04:52:48.517Z,1380.00
2024-05-09T04:53:48.527Z,1404.00
2024-05-09T04:54:48.420Z,1420.00
2024-05-09T04:55:48.480Z,1436.00
2024-05-09T04:56:48.398Z,1448.00
2024-05-09T04:57:48.411Z,1456.00
2024-05-09T04:58:48.442Z,1472.00
2024-05-09T04:59:48.354Z,1484.00
2024-05-09T05:00:48.422Z,1492.00
2024-05-09T05:01:48.493Z,1504.00
2024-05-09T05:02:48.438Z,1520.00
2024-05-09T05:03:48.484Z,1528.00
2024-05-09T05:04:48.399Z,1548.00
2024-05-09T05:05:48.327Z,1560.00
2024-05-09T05:06:48.280Z,1568.00
2024-05-09T05:07:48.308Z,1580.00
2024-05-09T05:08:48.295Z,1592.00
2024-05-09T05:09:48.247Z,1604.00
2024-05-09T05:10:49.242Z,1628.00
2024-05-09T05:11:48.302Z,1644.00
2024-05-09T05:12:48.253Z,1648.00
2024-05-09T05:13:48.350Z,1648.00
2024-05-09T05:14:48.233Z,1652.00
2024-05-09T05:15:48.180Z,1660.00
2024-05-09T05:16:48.214Z,1680.00
2024-05-09T05:17:48.301Z,1696.00
2024-05-09T05:18:48.248Z,1712.00
2024-05-09T05:19:48.382Z,1720.00
2024-05-09T05:20:48.237Z,1728.00
2024-05-09T05:21:48.103Z,1744.00
2024-05-09T05:22:48.191Z,1752.00
2024-05-09T05:23:48.169Z,1776.00
2024-05-09T05:24:48.085Z,1796.00
2024-05-09T05:25:48.447Z,1804.00
2024-05-09T05:26:48.134Z,1820.00
2024-05-09T05:27:48.104Z,1836.00
2024-05-09T05:28:48.304Z,1852.00
2024-05-09T05:29:48.076Z,1852.00
2024-05-09T05:30:48.014Z,1856.00
2024-05-09T05:31:48.031Z,1860.00
2024-05-09T05:32:48.215Z,1868.00
2024-05-09T05:33:48.098Z,1876.00
2024-05-09T05:34:48.009Z,1896.00
2024-05-09T05:35:48.161Z,1908.00
2024-05-09T05:36:47.939Z,1920.00
2024-05-09T05:37:47.966Z,1940.00
2024-05-09T05:38:48.006Z,1972.00
2024-05-09T05:39:47.915Z,2024.00
2024-05-09T05:40:47.930Z,2100.00
2024-05-09T05:41:47.893Z,2184.00
2024-05-09T05:42:47.918Z,2276.00
2024-05-09T05:43:47.911Z,2304.00
2024-05-09T05:44:47.964Z,2244.00
2024-05-09T05:45:47.838Z,2208.00
2024-05-09T05:46:47.864Z,2208.00
2024-05-09T05:47:48.140Z,2216.00
2024-05-09T05:48:48.093Z,2248.00
2024-05-09T05:49:47.820Z,2272.00
2024-05-09T05:50:47.884Z,2256.00
2024-05-09T05:51:47.786Z,2232.00
2024-05-09T05:52:47.794Z,2188.00
2024-05-09T05:53:47.814Z,2212.00
2024-05-09T05:54:47.839Z,2232.00
2024-05-09T05:55:47.757Z,2336.00
2024-05-09T05:56:47.730Z,2436.00
2024-05-09T05:57:47.716Z,2500.00
2024-05-09T05:58:47.762Z,2520.00
2024-05-09T05:59:47.745Z,2536.00
2024-05-09T06:00:47.755Z,2624.00
2024-05-09T06:01:47.685Z,2716.00
2024-05-09T06:02:47.791Z,2880.00
2024-05-09T06:03:47.834Z,2912.00
2024-05-09T06:04:47.773Z,3024.00
2024-05-09T06:05:47.641Z,3008.00
2024-05-09T06:06:47.634Z,3224.00
2024-05-09T06:07:47.635Z,3324.00
2024-05-09T06:08:47.833Z,3524.00
2024-05-09T06:09:49.975Z,3304.00
2024-05-09T06:10:47.716Z,3328.00
2024-05-09T06:11:47.616Z,4072.00
2024-05-09T06:12:47.527Z,4256.00
2024-05-09T06:13:47.699Z,4112.00
2024-05-09T06:14:47.615Z,3948.00
2024-05-09T06:15:47.517Z,3988.00
2024-05-09T06:16:47.640Z,4180.00
2024-05-09T06:17:47.634Z,4216.00
2024-05-09T06:18:47.760Z,4228.00
2024-05-09T06:19:47.717Z,4556.00
2024-05-09T06:20:47.703Z,4776.00
2024-05-09T06:21:47.438Z,4548.00
2024-05-09T06:22:47.499Z,4660.00
2024-05-09T06:23:47.479Z,4516.00
2024-05-09T06:24:47.414Z,4364.00
2024-05-09T06:25:47.462Z,4328.00
2024-05-09T06:26:47.468Z,4532.00
2024-05-09T06:27:47.364Z,4520.00
2024-05-09T06:28:47.541Z,4744.00
2024-05-09T06:29:47.344Z,5080.00
2024-05-09T06:30:47.362Z,5244.00
2024-05-09T06:31:47.353Z,5104.00
2024-05-09T06:32:47.380Z,5040.00
2024-05-09T06:33:47.400Z,4948.00
2024-05-09T06:34:47.450Z,4840.00
2024-05-09T06:35:47.393Z,4872.00
2024-05-09T06:36:47.265Z,4948.00
2024-05-09T06:37:47.269Z,4928.00
2024-05-09T06:38:47.334Z,4904.00
2024-05-09T06:39:47.251Z,4792.00
2024-05-09T06:40:47.260Z,4548.00
2024-05-09T06:41:47.197Z,5068.00
2024-05-09T06:42:47.248Z,5016.00
2024-05-09T06:43:47.224Z,5156.00
2024-05-09T06:44:47.171Z,5332.00
2024-05-09T06:45:47.715Z,5692.00
2024-05-09T06:46:47.217Z,5932.00
2024-05-09T06:47:47.317Z,5676.00
2024-05-09T06:48:47.278Z,5588.00
2024-05-09T06:49:47.207Z,5148.00
2024-05-09T06:50:47.202Z,4072.00
2024-05-09T06:51:47.098Z,4132.00
2024-05-09T06:52:47.410Z,4080.00
2024-05-09T06:53:47.179Z,4048.00
2024-05-09T06:54:47.052Z,4216.00
2024-05-09T06:55:47.079Z,4232.00
2024-05-09T06:56:47.052Z,4120.00
2024-05-09T06:57:47.021Z,4044.00
2024-05-09T06:58:47.159Z,4032.00
2024-05-09T06:59:47.008Z,4032.00
2024-05-09T07:00:47.113Z,3972.00
2024-05-09T07:01:47.003Z,3852.00
2024-05-09T07:02:47.016Z,3728.00
2024-05-09T07:03:47.285Z,3476.00
2024-05-09T07:04:47.159Z,3428.00
2024-05-09T07:05:48.003Z,3788.00
2024-05-09T07:06:46.947Z,3836.00
2024-05-09T07:07:47.070Z,4128.00
2024-05-09T07:08:48.744Z,4188.00
2024-05-09T07:09:46.890Z,4420.00
2024-05-09T07:10:48.001Z,4344.00
2024-05-09T07:11:46.924Z,4148.00
2024-05-09T07:12:46.859Z,3820.00
2024-05-09T07:13:46.870Z,3320.00
2024-05-09T07:14:46.893Z,3248.00
2024-05-09T07:15:46.907Z,3500.00
2024-05-09T07:16:47.040Z,3668.00
2024-05-09T07:17:46.971Z,3988.00
2024-05-09T07:18:46.973Z,3736.00
2024-05-09T07:19:46.955Z,3524.00
2024-05-09T07:20:47.561Z,3452.00
2024-05-09T07:21:46.755Z,3620.00
2024-05-09T07:22:46.872Z,3504.00
2024-05-09T07:23:47.541Z,3912.00
2024-05-09T07:24:46.790Z,3488.00
2024-05-09T07:25:46.946Z,3540.00
2024-05-09T07:26:46.752Z,3492.00
2024-05-09T07:27:46.686Z,3392.00
2024-05-09T07:28:46.856Z,3488.00
2024-05-09T07:29:46.703Z,3348.00
2024-05-09T07:30:46.730Z,3372.00
2024-05-09T07:31:46.711Z,3492.00
2024-05-09T07:32:46.896Z,3712.00
2024-05-09T07:33:46.810Z,3516.00
2024-05-09T07:34:46.674Z,3088.00
2024-05-09T07:35:46.679Z,2784.00
2024-05-09T07:36:46.707Z,2632.00
2024-05-09T07:37:46.599Z,2588.00
2024-05-09T07:38:46.581Z,2528.00
2024-05-09T07:39:46.612Z,2524.00
2024-05-09T07:40:46.903Z,2492.00
2024-05-09T07:41:46.643Z,2448.00
2024-05-09T07:42:46.567Z,2416.00
2024-05-09T07:43:46.580Z,2404.00
2024-05-09T07:44:46.535Z,2400.00
2024-05-09T07:45:52.215Z,2408.00
2024-05-09T07:47:48.606Z,2440.00
2024-05-09T07:49:12.751Z,2468.00
2024-05-09T07:53:16.989Z,2544.00
2024-05-09T07:53:34.655Z,2524.00
2024-05-09T07:53:50.975Z,2500.00
2024-05-09T07:54:47.634Z,2480.00
2024-05-09T07:55:49.750Z,2480.00
2024-05-09T07:56:46.787Z,2484.00
2024-05-09T07:57:46.393Z,2492.00
2024-05-09T07:58:46.328Z,2508.00
2024-05-09T07:59:46.326Z,2528.00
2024-05-09T08:00:46.925Z,2540.00
2024-05-09T08:01:46.461Z,2568.00
2024-05-09T08:02:46.323Z,2604.00
2024-05-09T08:03:46.557Z,2676.00
2024-05-09T08:04:46.430Z,2712.00
2024-05-09T08:05:46.283Z,2752.00
2024-05-09T08:06:46.334Z,2792.00
2024-05-09T08:07:46.328Z,2852.00
2024-05-09T08:08:46.297Z,2952.00
2024-05-09T08:09:46.267Z,3016.00
2024-05-09T08:10:46.445Z,3064.00
2024-05-09T08:11:46.485Z,3092.00
2024-05-09T08:12:46.217Z,3160.00
2024-05-09T08:13:46.157Z,3292.00
2024-05-09T08:14:46.157Z,3480.00
2024-05-09T08:15:46.311Z,3716.00
2024-05-09T08:16:46.245Z,3928.00
2024-05-09T08:17:46.174Z,3996.00
2024-05-09T08:18:46.170Z,3980.00
2024-05-09T08:19:46.175Z,4104.00
2024-05-09T08:20:46.080Z,4160.00
2024-05-09T08:21:46.145Z,4032.00
2024-05-09T08:22:46.060Z,3604.00
2024-05-09T08:23:46.076Z,3424.00
2024-05-09T08:24:46.078Z,3108.00
2024-05-09T08:25:46.081Z,2908.00
2024-05-09T08:26:46.118Z,2884.00
2024-05-09T08:27:46.023Z,2884.00
2024-05-09T08:28:46.019Z,2916.00
2024-05-09T08:29:46.096Z,2940.00
2024-05-09T08:30:46.130Z,2964.00
2024-05-09T08:31:46.835Z,2912.00
2024-05-09T08:32:45.994Z,2876.00
2024-05-09T08:33:46.150Z,2912.00
2024-05-09T08:34:45.977Z,2972.00
2024-05-09T08:35:45.911Z,3000.00
2024-05-09T08:36:46.080Z,3040.00
2024-05-09T08:37:45.995Z,3428.00
2024-05-09T08:38:45.888Z,3620.00
2024-05-09T08:39:45.870Z,3296.00
2024-05-09T08:40:46.325Z,3376.00
2024-05-09T08:41:45.867Z,3396.00
2024-05-09T08:42:45.880Z,3452.00
2024-05-09T08:43:45.829Z,3436.00
2024-05-09T08:44:45.821Z,3444.00
2024-05-09T08:45:45.968Z,3468.00
2024-05-09T08:46:45.878Z,3476.00
2024-05-09T08:47:45.873Z,3448.00
2024-05-09T08:48:46.073Z,3396.00
2024-05-09T08:49:45.836Z,3308.00
2024-05-09T08:50:46.137Z,3224.00
2024-05-09T08:51:45.785Z,3276.00
2024-05-09T08:52:45.797Z,3408.00
2024-05-09T08:53:45.833Z,3388.00
2024-05-09T08:54:45.781Z,3308.00
2024-05-09T08:55:45.794Z,3216.00
2024-05-09T08:56:45.676Z,3416.00
2024-05-09T08:57:45.712Z,4120.00
2024-05-09T08:58:45.691Z,4160.00
2024-05-09T08:59:45.754Z,3828.00
2024-05-09T09:00:46.309Z,3512.00
2024-05-09T09:01:45.716Z,3304.00
2024-05-09T09:02:45.824Z,3260.00
2024-05-09T09:03:45.898Z,3368.00
2024-05-09T09:04:45.852Z,4104.00
2024-05-09T09:05:45.681Z,4124.00
2024-05-09T09:06:47.155Z,3204.00
2024-05-09T09:07:46.398Z,3248.00
2024-05-09T09:08:45.545Z,4068.00
2024-05-09T09:09:45.586Z,3812.00
2024-05-09T09:10:45.666Z,3976.00
2024-05-09T09:11:45.638Z,3556.00
2024-05-09T09:12:45.562Z,4080.00
2024-05-09T09:13:45.558Z,4164.00
2024-05-09T09:14:45.468Z,4120.00
2024-05-09T09:15:45.523Z,4120.00
2024-05-09T09:16:45.469Z,4028.00
2024-05-09T09:17:45.541Z,3996.00
2024-05-09T09:18:45.584Z,3828.00
2024-05-09T09:19:45.474Z,2724.00
2024-05-09T09:20:45.626Z,2592.00
2024-05-09T09:21:45.433Z,2584.00
2024-05-09T09:22:45.410Z,2624.00
2024-05-09T09:23:45.385Z,2752.00
2024-05-09T09:24:45.389Z,2920.00
2024-05-09T09:25:45.366Z,2868.00
2024-05-09T09:26:45.366Z,2908.00
2024-05-09T09:27:45.466Z,2764.00
2024-05-09T09:28:45.333Z,2756.00
2024-05-09T09:29:45.320Z,2600.00
2024-05-09T09:30:45.354Z,2500.00
2024-05-09T09:31:45.286Z,2500.00
2024-05-09T09:32:45.445Z,2468.00
2024-05-09T09:33:45.500Z,2744.00
2024-05-09T09:34:45.350Z,2484.00
2024-05-09T09:35:45.258Z,2308.00
2024-05-09T09:36:52.939Z,2240.00
2024-05-09T09:37:45.254Z,2268.00
2024-05-09T09:38:45.219Z,2592.00
2024-05-09T09:39:49.040Z,2592.00
2024-05-09T09:40:49.096Z,2716.00
2024-05-09T09:41:45.286Z,2784.00
2024-05-09T09:42:45.204Z,3012.00
2024-05-09T09:43:45.190Z,2812.00
2024-05-09T09:44:54.459Z,2776.00
2024-05-09T09:45:46.138Z,2764.00
2024-05-09T09:46:45.144Z,2764.00
2024-05-09T09:47:45.310Z,2668.00
2024-05-09T09:48:45.341Z,2552.00
2024-05-09T09:49:45.245Z,2480.00
2024-05-09T09:50:45.077Z,2428.00
2024-05-09T09:51:45.114Z,2412.00
2024-05-09T09:52:45.060Z,2416.00
2024-05-09T09:53:45.052Z,2488.00
2024-05-09T09:54:45.117Z,3428.00
2024-05-09T09:55:45.010Z,2360.00
2024-05-09T09:56:45.003Z,2452.00
2024-05-09T09:57:45.025Z,2740.00
2024-05-09T09:58:45.008Z,2564.00
2024-05-09T09:59:45.022Z,3420.00
2024-05-09T10:00:45.371Z,3192.00
2024-05-09T10:01:45.171Z,2456.00
2024-05-09T10:02:44.944Z,2912.00
2024-05-09T10:03:45.151Z,2900.00
2024-05-09T10:04:45.037Z,2348.00
2024-05-09T10:05:47.081Z,2312.00
2024-05-09T10:06:44.908Z,2472.00
2024-05-09T10:07:44.876Z,3200.00
2024-05-09T10:08:44.880Z,3444.00
2024-05-09T10:09:44.921Z,3424.00
2024-05-09T10:10:45.003Z,3432.00
2024-05-09T10:11:49.252Z,3452.00
2024-05-09T10:12:45.864Z,3440.00
2024-05-09T10:13:44.828Z,3436.00
2024-05-09T10:14:44.847Z,3408.00
2024-05-09T10:15:45.047Z,3392.00
2024-05-09T10:16:44.842Z,2992.00
2024-05-09T10:17:44.902Z,3160.00
2024-05-09T10:18:44.946Z,3112.00
2024-05-09T10:19:44.854Z,3112.00
2024-05-09T10:20:44.901Z,3096.00
2024-05-09T10:21:44.799Z,3112.00
2024-05-09T10:22:44.713Z,3132.00
2024-05-09T10:23:44.700Z,3160.00
2024-05-09T10:24:44.735Z,3168.00
2024-05-09T10:25:44.693Z,3152.00
2024-05-09T10:26:44.703Z,3144.00
2024-05-09T10:27:44.727Z,3128.00
2024-05-09T10:28:44.649Z,3092.00
2024-05-09T10:29:44.625Z,3084.00
2024-05-09T10:30:46.581Z,3060.00
2024-05-09T10:31:44.736Z,3028.00
2024-05-09T10:32:44.747Z,2996.00
2024-05-09T10:33:44.757Z,2956.00
2024-05-09T10:34:44.747Z,2924.00
2024-05-09T10:35:44.700Z,2904.00
2024-05-09T10:36:44.690Z,2888.00
2024-05-09T10:37:44.542Z,2884.00
2024-05-09T10:38:44.537Z,2900.00
2024-05-09T10:39:44.554Z,2908.00
2024-05-09T10:40:44.672Z,2940.00
2024-05-09T10:41:44.518Z,2960.00
2024-05-09T10:42:44.556Z,2984.00
2024-05-09T10:43:44.477Z,3012.00
2024-05-09T10:44:44.493Z,3016.00
2024-05-09T10:45:44.534Z,3040.00
2024-05-09T10:46:44.471Z,3092.00
2024-05-09T10:47:44.533Z,3120.00
2024-05-09T10:48:44.925Z,3076.00
2024-05-09T10:49:44.480Z,3104.00
2024-05-09T10:50:44.393Z,3112.00
2024-05-09T10:51:44.588Z,3120.00
2024-05-09T10:52:44.392Z,3144.00
2024-05-09T10:53:44.419Z,3168.00
2024-05-09T10:54:44.409Z,3236.00
2024-05-09T10:55:44.399Z,3316.00
2024-05-09T10:56:44.360Z,3396.00
2024-05-09T10:57:44.369Z,3472.00
2024-05-09T10:58:44.318Z,3532.00
2024-05-09T10:59:44.320Z,3564.00
2024-05-09T11:00:44.407Z,3564.00
2024-05-09T11:01:44.688Z,3608.00
2024-05-09T11:02:44.453Z,3660.00
2024-05-09T11:03:44.416Z,3708.00
2024-05-09T11:04:44.470Z,3708.00
2024-05-09T11:05:44.424Z,2496.00
2024-05-09T11:06:44.281Z,3128.00
2024-05-09T11:07:44.196Z,2384.00
2024-05-09T11:08:44.212Z,2548.00
2024-05-09T11:09:44.227Z,2724.00
2024-05-09T11:10:44.405Z,3560.00
2024-05-09T11:11:44.200Z,3580.00
2024-05-09T11:12:44.179Z,3824.00
2024-05-09T11:13:44.164Z,3772.00
2024-05-09T11:14:44.141Z,3768.00
2024-05-09T11:15:44.180Z,3772.00
2024-05-09T11:16:44.135Z,3808.00
2024-05-09T11:17:44.295Z,3828.00
2024-05-09T11:18:44.368Z,3812.00
2024-05-09T11:19:44.140Z,3744.00
2024-05-09T11:20:44.241Z,2648.00
2024-05-09T11:21:44.092Z,2260.00
2024-05-09T11:22:44.074Z,2204.00
2024-05-09T11:23:44.028Z,2372.00
2024-05-09T11:24:44.062Z,3588.00
2024-05-09T11:25:44.080Z,3604.00
2024-05-09T11:26:44.036Z,3212.00
2024-05-09T11:27:44.046Z,2572.00
2024-05-09T11:28:43.972Z,1956.00
2024-05-09T11:29:43.977Z,2088.00
2024-05-09T11:30:43.978Z,2248.00
2024-05-09T11:31:44.024Z,3024.00
2024-05-09T11:32:44.069Z,3440.00
2024-05-09T11:33:44.215Z,3492.00
2024-05-09T11:34:43.959Z,3544.00
2024-05-09T11:35:43.946Z,3612.00
2024-05-09T11:36:43.942Z,3684.00
2024-05-09T11:37:43.898Z,2580.00
2024-05-09T11:38:43.887Z,3708.00
2024-05-09T11:39:43.900Z,2572.00
2024-05-09T11:40:43.980Z,2120.00
2024-05-09T11:41:43.843Z,2180.00
2024-05-09T11:42:43.853Z,2436.00
2024-05-09T11:43:43.832Z,2264.00
2024-05-09T11:44:43.805Z,2312.00
2024-05-09T11:45:43.801Z,4056.00
2024-05-09T11:46:43.773Z,4336.00
2024-05-09T11:47:43.882Z,2896.00
2024-05-09T11:48:43.944Z,2560.00
2024-05-09T11:49:43.764Z,3800.00
2024-05-09T11:50:43.785Z,4168.00
2024-05-09T11:51:43.782Z,4152.00
2024-05-09T11:52:43.712Z,3728.00
2024-05-09T11:53:43.713Z,3508.00
2024-05-09T11:54:43.715Z,2100.00
2024-05-09T11:55:43.660Z,2888.00
2024-05-09T11:56:43.732Z,3064.00
2024-05-09T11:57:43.670Z,2944.00
2024-05-09T11:58:43.692Z,3776.00
2024-05-09T11:59:43.628Z,1936.00
2024-05-09T12:00:43.819Z,4000.00
2024-05-09T12:01:43.849Z,3636.00
2024-05-09T12:02:43.647Z,3992.00
2024-05-09T12:03:43.787Z,3904.00
2024-05-09T12:04:43.728Z,4120.00
2024-05-09T12:05:43.720Z,3076.00
2024-05-09T12:06:43.561Z,1844.00
2024-05-09T12:07:43.547Z,1784.00
2024-05-09T12:08:43.649Z,1816.00
2024-05-09T12:09:43.631Z,4364.00
2024-05-09T12:10:43.642Z,4448.00
2024-05-09T12:11:43.555Z,4448.00
2024-05-09T12:12:43.566Z,4420.00
2024-05-09T12:13:43.521Z,4364.00
2024-05-09T12:14:43.496Z,4400.00
2024-05-09T12:15:43.504Z,4456.00
2024-05-09T12:16:43.571Z,4440.00
2024-05-09T12:17:44.159Z,4420.00
2024-05-09T12:18:43.537Z,4404.00
2024-05-09T12:19:43.499Z,4392.00
2024-05-09T12:20:43.455Z,4388.00
2024-05-09T12:21:43.466Z,4380.00
2024-05-09T12:22:43.498Z,4388.00
2024-05-09T12:23:43.364Z,4404.00
2024-05-09T12:24:43.389Z,4428.00
2024-05-09T12:25:43.368Z,4448.00
2024-05-09T12:26:43.333Z,4496.00
2024-05-09T12:27:43.350Z,4556.00
2024-05-09T12:28:43.353Z,4600.00